EDDM

Munich International Airport

Munich, Germany
METAR EDDM 211250Z 03005KT 340V080 8000 FEW012 01/M04 Q1017 NOSIG
Observed Flight Rules
Feb-21 @ 12:50 UTC (29 minutes ago) Marginal Visual Flight Rules
Wind Visibility Clouds
30° at 5 knots 7,998 meters
  • Few at 1,200' AGL
Temperatures Readings
Current 1°C / 34°F
Dewpoint -4°C / 25°F
Humidity 70%
Altimeter 30.03" Hg
Pressure 1017 hPa
Elevation 447
METAR EDDM 211250Z 03005KT 340V080 8000 FEW012 01/M04 Q1017 NOSIG
Observed Flight Rules
Feb-21 @ 12:50 UTC
(29 minutes ago)
MVFR
Wind Visibility
30° at 5 knots 7,998 meters
Clouds
  • Few at 1,200' AGL
Temperature Dewpoint
1°C / 34°F -4°C / 25°F
Humidity Altimeter Pressure
70% 30.03" Hg 1017 hPa